Погода Халебна неделю

Халеб, Сирия

15 - 21 июля
  • 15июля
    Сегодня
    +25°
    +37°
    Ясно и безоблачно
    ВремяПогодаТемператураВлажностьДавлениеВетер, м/сВероятность осадков
    00:00Ясно и безоблачно+27°C70 %719 мм6.5 м/с1 %
    03:00Ясно и безоблачно+26°C77 %719 мм6.4 м/с2 %
    06:00Ясно и безоблачно+25°C80 %719 мм5.9 м/с2 %
    09:00Ясно и безоблачно+30°C58 %719 мм7.5 м/с2 %
    12:00Ясно и безоблачно+34°C38 %719 мм7.5 м/с4 %
    15:00Ясно и безоблачно+36°C34 %719 мм7.8 м/с4 %
    18:00Ясно и безоблачно+34°C43 %719 мм8.5 м/с3 %
    21:00Ясно и безоблачно+30°C67 %720 мм6.6 м/с2 %
  • 16июля
    Вторник
    +24°
    +38°
    Ясно и безоблачно
    ВремяПогодаТемператураВлажностьДавлениеВетер, м/сВероятность осадков
    00:00Ясно и безоблачно+27°C76 %721 мм5.6 м/с2 %
    03:00Ясно и безоблачно+27°C81 %720 мм4.2 м/с2 %
    06:00Ясно и безоблачно+25°C83 %721 мм4.5 м/с2 %
    09:00Ясно и безоблачно+30°C56 %721 мм5.6 м/с2 %
    12:00Ясно и безоблачно+35°C33 %721 мм6.6 м/с2 %
    15:00Ясно и безоблачно+37°C27 %721 мм7.2 м/с2 %
    18:00Ясно и безоблачно+36°C35 %721 мм8.0 м/с2 %
    21:00Ясно и безоблачно+30°C59 %721 мм6.2 м/с2 %
  • 17июля
    Среда
    +24°
    +38°
    Ясно и безоблачно
    ВремяПогодаТемператураВлажностьДавлениеВетер, м/сВероятность осадков
    00:00Ясно и безоблачно+27°C69 %721 мм4.1 м/с2 %
    03:00Ясно и безоблачно+26°C77 %721 мм4.1 м/с2 %
    06:00Ясно и безоблачно+24°C83 %721 мм3.9 м/с2 %
    09:00Ясно и безоблачно+30°C57 %722 мм5.3 м/с2 %
    12:00Ясно и безоблачно+35°C37 %722 мм6.0 м/с2 %
    15:00Ясно и безоблачно+37°C33 %721 мм6.7 м/с2 %
    18:00Ясно и безоблачно+35°C44 %721 мм8.0 м/с2 %
    21:00Ясно и безоблачно+30°C59 %721 мм5.7 м/с2 %
  • 18июля
    Четверг
    +25°
    +39°
    Ясно и безоблачно
    ВремяПогодаТемператураВлажностьДавлениеВетер, м/сВероятность осадков
    00:00Ясно и безоблачно+27°C71 %721 мм5.3 м/с2 %
    03:00Ясно и безоблачно+27°C80 %721 мм4.6 м/с2 %
    06:00Ясно и безоблачно+25°C82 %720 мм4.8 м/с2 %
    09:00Ясно и безоблачно+31°C56 %721 мм6.1 м/с2 %
    12:00Ясно и безоблачно+36°C36 %721 мм6.7 м/с2 %
    15:00Ясно и безоблачно+39°C28 %720 мм6.9 м/с2 %
    18:00Ясно и безоблачно+37°C40 %719 мм7.8 м/с2 %
    21:00Ясно и безоблачно+31°C61 %720 мм7.1 м/с2 %
  • 19июля
    Пятница
    +25°
    +39°
    Ясно и безоблачно
    ВремяПогодаТемператураВлажностьДавлениеВетер, м/сВероятность осадков
    00:00Ясно и безоблачно+28°C67 %720 мм5.8 м/с2 %
    03:00Ясно и безоблачно+28°C69 %719 мм5.3 м/с2 %
    06:00Ясно и безоблачно+26°C73 %719 мм4.2 м/с2 %
    09:00Ясно и безоблачно+31°C51 %719 мм5.6 м/с2 %
    12:00Ясно и безоблачно+37°C30 %719 мм5.4 м/с2 %
    15:00Ясно и безоблачно+39°C26 %718 мм6.8 м/с2 %
    18:00Ясно и безоблачно+37°C35 %717 мм7.1 м/с2 %
    21:00Ясно и безоблачно+31°C53 %718 мм7.0 м/с2 %
Мы используем cookies
Соглашаюсь